Aérodrome :
LOGIN :

S'inscrire | Disclaimer

   EN    FR    IT 

 










Légende :    VFR   VFR Marginal   IFR   IFR Intensif   IFR Très Intensif
Visi : 
Plafond : 
>= 8 km
>= 3000ft
5 à 8 km
1000 à 3000 ft
1500m à 5 km
500 à 1000 ft
800 à 1500m
200 à 500 ft
< 800m
< 200 ft
Symboles :   Orages  Brouillard  Fortes neiges  Fortes précipitations  Vent > 20 kt
SIGMETs :   Divers  Orages  Givrage  Turbulence  Onde Orograph.  Cendres Volcan.







- Altitude de l'aérodrome : 479 ft
- Code IATA : DOL
- Voir les cartes d'approche


LFRG - Deauville

DERNIER METAR :
  • 211300Z AUTO 32005KT 280V020 9999 BKN009 OVC014 17/15 Q1015 TEMPO 4000 -SHRA BECMG SCT040

METARs EXPIRÉS :
  • 211230Z AUTO 32005KT 290V360 9999 BKN009 BKN013 OVC023 18/16 Q1015 TEMPO 4000 -SHRA BECMG SCT040
  • 211200Z AUTO 33006KT 290V360 9000 BKN009 BKN013 OVC020 17/15 Q1015 TEMPO 4000 -SHRA BECMG SCT040
  • 211130Z AUTO 32005KT 280V350 8000 BKN008 OVC014 17/16 Q1015 TEMPO 4000 -SHRA BECMG SCT040
  • 211100Z AUTO 32005KT 290V350 7000 BKN007 OVC014 17/15 Q1015 TEMPO 4000 -SHRA BECMG SCT040
  • 211030Z AUTO 31005KT 270V010 6000 BKN009 OVC017 17/16 Q1014 TEMPO 4000 -SHRA BECMG SCT040

TAF TAF LFRG
Valide du 21 à 12h jusqu'au 21 à 21h UTC


211100Z 2112/2121 31007KT 9999 SCT040
PROB30
TEMPO 2112/2115 4000 -SHRA
ATIS : +33 2 31 65 65 36
Pas de NOTAMs connus pour ce terrain.



MET'MAP, la Météo Aéronautique d'un coup d'oeil ! - Copyright ORBIFLY Décembre 2007 - Disclaimer

ORBIFLY MET'MAP TEAM :

Programmation & Développement : Alexandra Zaïnal
Conception & Développement : Baudouin d'Aumeries
Co-Programmation & Développement : Marc-Olivier Méhu
Soutien technique & logistique : Manuel Goepfert

Contact : metmap@orbifly.com




SOURCES & CREDITS :

   NOAA